Tiempo atmosférico en la estación meteorológica de El Pedregal, Guadalajara (1185 m.)



Fecha
DESCASC
Temp. máxima en grados centígrados (hora)
DESCASC
Temp. mínima en grados centígrados (hora)
DESCASC
Temp. media en grados centígrados
DESCASC
Racha de viento máxima en m/sg (hora)
DESCASC
Velocidad máxima media en intervalos de 10 minutos(hora)
DESCASC
Precipitaciones diarias en mm
DESCASC
Precipitaciones de 00:00 a 06:00 en mm
DESCASC
Precipitaciones de 06:00 a 12:00 en mm
DESCASC
Precipitaciones de 12:00 a 18:00 en mm
DESCASC
Precipitaciones de 18:00 a 24:00 en mm
DESCASC
22-08-2019 28.3 (18:20) 10.4 (05:20) 19.3 6.11 (16:20) 3.89 (16:20) 0 0 0 0 0
21-08-2019 24.9 (14:10) 11.9 (06:30) 18.4 10 (21:10) 6.94 (21:00) 28.2 0 0 19 9.2
20-08-2019 19.9 (17:40) 12.4 (09:10) 16.1 7.22 (15:40) 4.72 (12:00) 1.4 0.8 0.6 0 0
19-08-2019 30.4 (14:50) 12.5 (05:30) 21.4 10.28 (16:50) 6.11 (16:50) 0 0 0 0 0
18-08-2019 33 (16:10) 18.4 (00:00) 25.7 13.06 (15:00) 7.5 (12:30) 0 0 0 0 0
17-08-2019 34.1 (18:00) 16.5 (00:00) 25.3 11.11 (14:10) 5.83 (14:20) 0 0 0 0 0
16-08-2019 33 (17:50) 12.5 (00:00) 22.8 9.44 (17:10) 4.72 (16:30) 0 0 0 0 0
15-08-2019 29.5 (17:30) 10.8 (00:00) 20.2 8.61 (20:10) 5 (20:50) 0 0 0 0 0
14-08-2019 30.2 (18:20) 8.8 (00:00) 19.5 10 (16:20) 3.89 (13:10) 0 0 0 0 0
13-08-2019 25.5 (18:00) 10.1 (00:00) 17.8 8.06 (16:40) 4.72 (16:20) 0 0 0 0 0
12-08-2019 24.6 (17:30) 10 (00:00) 17.3 10.28 (19:00) 6.39 (18:50) 0 0 0 0 0
11-08-2019 29 (17:30) 15.6 (00:00) 22.3 13.33 (16:10) 6.67 (16:20) 0 0 0 0 0
10-08-2019 31.9 (18:00) 14.5 (00:00) 23.2 11.11 (17:50) 6.39 (17:10) 0 0 0 0 0
09-08-2019 30.8 (16:00) 17.5 (00:00) 24.1 14.17 (16:40) 7.5 (17:30) 0 0 0 0 0
08-08-2019 31.5 (18:10) 14.5 (00:00) 23 10.28 (17:20) 5.56 (15:30) 0 0 0 0 0
07-08-2019 26.1 (00:10) 19.5 (00:00) 22.8 10 (00:30) 5.56 (00:20) 0 0 0 0 0
06-08-2019 33.5 (17:40) 17.1 (00:00) 25.3 10.83 (12:10) 6.11 (12:00) 0 0 0 0 0
05-08-2019 34.1 (15:40) 16.3 (00:00) 25.2 10.28 (15:50) 5.56 (18:00) 0 0 0 0 0
04-08-2019 33.6 (18:00) 17.2 (00:00) 25.4 12.5 (15:00) 5.28 (15:30) 0 0 0 0 0
03-08-2019 33.5 (15:40) 12.9 (00:00) 23.2 11.94 (15:20) 5.56 (15:20) 0 0 0 0 0
02-08-2019 32.4 (17:10) 11.8 (00:00) 22.1 11.11 (15:40) 5.56 (15:20) 0 0 0 0 0
01-08-2019 31.5 (17:10) 13.2 (00:00) 22.3 10.28 (16:50) 5.56 (16:10) 0 0 0 0 0
31-07-2019 29.5 (16:50) 9.6 (00:00) 19.6 13.33 (16:10) 8.33 (14:10) 0 0 0 0 0
30-07-2019 27.8 (17:30) 10.9 (00:00) 19.3 9.44 (18:50) 6.11 (18:50) 0 0 0 0 0
29-07-2019 30.2 (18:00) 11.3 (00:00) 20.8 11.39 (17:00) 5.56 (20:00) 0 0 0 0 0
28-07-2019 26.8 (17:50) 8.5 (00:00) 17.6 7.5 (18:10) 4.17 (18:10) 0 0 0 0 0
27-07-2019 24.5 (17:20) 13.3 (00:00) 18.9 13.33 (16:20) 7.78 (16:20) 0 0 0 0 0
26-07-2019 29.3 (17:20) 16.1 (00:00) 22.7 10.83 (17:40) 6.11 (17:40) 0.2 0.2 0 0 0
25-07-2019 32.6 (12:10) 19.9 (00:00) 26.2 12.5 (02:30) 7.78 (02:40) 0.8 0 0 0.6 0.2
24-07-2019 34.8 (17:20) 16.9 (00:00) 25.8 11.39 (13:30) 5.56 (18:50) 0 0 0 0 0

Gráficas

Temp. máximas Temp. mínimas Temp. medias Precipitaciones Rachas de viento máximas Velocidades máximas media en intervalos de 10 minutos

Datos horarios

Fecha y hora oficial Temperatura (ºC) Velocidad del viento (km/h) Dirección del viento Racha (km/h) Dirección de racha Precipitación (mm) Presión (hPa) Tendencia (hPa) Humedad (%)
2019-08-22 23:00:00 17 2 Sur 9 Nordeste 0 -- -- 59
2019-08-22 22:00:00 17.8 3 Norte 8 Nordeste 0 -- -- 57
2019-08-22 21:00:00 20.5 6 Nordeste 19 Nordeste 0 -- -- 50
2019-08-22 20:00:00 24.7 10 Nordeste 21 Este 0 -- -- 39
2019-08-22 19:00:00 28.1 8 Este 21 Este 0 -- -- 28
2019-08-22 18:00:00 27.9 10 Nordeste 19 Nordeste 0 -- -- 22
2019-08-22 17:00:00 27.1 11 Nordeste 22 Este 0 -- -- 29
2019-08-22 16:00:00 26.5 9 Nordeste 21 Este 0 -- -- 32
2019-08-22 15:00:00 25.2 6 Norte 19 Norte 0 -- -- 42
2019-08-22 14:00:00 25.4 6 Nordeste 20 Este 0 -- -- 38
2019-08-22 13:00:00 23.7 9 Nordeste 17 Este 0 -- -- 50
2019-08-22 12:00:00 23.3 4 Sudeste 13 Este 0 -- -- 54
2019-08-22 11:00:00 21.9 6 Este 14 Sudeste 0 -- -- 61
2019-08-22 10:00:00 19.6 5 Este 11 Este 0 -- -- 66
2019-08-22 09:00:00 14.8 0 Calma 4 Oeste 0 -- -- 87
2019-08-22 08:00:00 11.2 4 Oeste 11 Oeste 0 -- -- 92
2019-08-22 07:00:00 10.5 0 Calma 12 Oeste 0 -- -- 94
2019-08-22 06:00:00 10.9 7 Oeste 10 Oeste 0 -- -- 93
2019-08-22 05:00:00 10.7 4 Oeste 8 Oeste 0 -- -- 93
2019-08-22 04:00:00 11.1 3 Oeste 7 Oeste 0 -- -- 92
2019-08-22 03:00:00 11.5 5 Oeste 10 Oeste 0 -- -- 89
2019-08-22 02:00:00 12.2 4 Oeste 11 Sudoeste 0 -- -- 86
2019-08-22 01:00:00 12 6 Oeste 9 Oeste 0 -- -- 87
2019-08-22 00:00:00 13.4 2 Oeste 5 Oeste 0 -- -- 85
2019-08-21 23:00:00 14.9 2 Nordeste 9 Sur 0 -- -- 75
2019-08-21 22:00:00 15.7 4 Este 36 Sudoeste 0 -- -- 68
2019-08-21 21:00:00 15.2 25 Sudoeste 34 Sur 0 -- -- 73
2019-08-21 20:00:00 15.4 6 Sudeste 27 Sudeste 0 -- -- 74
2019-08-21 19:00:00 13.6 16 Sur 32 Sudeste 9.2 -- -- 93
2019-08-21 18:00:00 15.7 13 Sur 21 Sudoeste 18.8 -- -- 94
2019-08-21 17:00:00 20.2 9 Sudeste 17 Este 0 -- -- 74
2019-08-21 16:00:00 20.4 9 Sudeste 22 Sudeste 0.2 -- -- 71
2019-08-21 15:00:00 21 14 Sudeste 23 Este 0 -- -- 68
2019-08-21 14:00:00 23.7 13 Este 23 Sudeste 0 -- -- 58
2019-08-21 13:00:00 21.6 11 Nordeste 24 Este 0 -- -- 65
2019-08-21 12:00:00 22.8 10 Este 18 Este 0 -- -- 62
2019-08-21 11:00:00 21 6 Sudeste 16 Sudeste 0 -- -- 67
2019-08-21 10:00:00 19.4 11 Este 18 Este 0 -- -- 70
2019-08-21 09:00:00 16.4 3 Sudeste 10 Sudeste 0 -- -- 81
2019-08-21 08:00:00 13.4 4 Este 11 Sudeste 0 -- -- 89
2019-08-21 07:00:00 12 4 Nordeste 6 Este 0 -- -- 92
2019-08-21 06:00:00 12.1 0 Calma 4 Sudeste 0 -- -- 90
2019-08-21 05:00:00 13.2 4 Sudeste 12 Este 0 -- -- 87
2019-08-21 04:00:00 13.9 9 Este 19 Este 0 -- -- 85
2019-08-21 03:00:00 15 13 Este 15 Este 0 -- -- 83
2019-08-21 02:00:00 15.5 9 Este 14 Este 0 -- -- 81
2019-08-21 01:00:00 16 11 Este 22 Este 0 -- -- 82
2019-08-21 00:00:00 16.1 12 Este 22 Este 0 -- -- 80
2019-08-20 23:00:00 16.3 13 Este 23 Este 0 -- -- 78
2019-08-20 22:00:00 16.2 16 Este 25 Este 0 -- -- 76
2019-08-20 21:00:00 16.7 15 Nordeste 24 Nordeste 0 -- -- 75
2019-08-20 20:00:00 17.5 17 Nordeste 25 Este 0 -- -- 74
2019-08-20 19:00:00 18.4 15 Nordeste 22 Nordeste 0 -- -- 72
2019-08-20 18:00:00 19.3 13 Nordeste 23 Este 0 -- -- 68
2019-08-20 17:00:00 19.2 13 Nordeste 24 Este 0 -- -- 69
2019-08-20 16:00:00 17.3 12 Nordeste 26 Nordeste 0 -- -- 75
2019-08-20 15:00:00 15.7 13 Nordeste 22 Nordeste 0 -- -- 81
2019-08-20 14:00:00 14.5 11 Nordeste 21 Norte 0 -- -- 91
2019-08-20 13:00:00 13.1 11 Nordeste 23 Nordeste 0 -- -- 96
2019-08-20 12:00:00 12.4 17 Nordeste 24 Nordeste 0 -- -- 96
2019-08-20 11:00:00 13.3 11 Nordeste 16 Nordeste 0 -- -- 95
2019-08-20 10:00:00 12.6 9 Nordeste 22 Norte 0.6 -- -- 96
2019-08-20 09:00:00 12.6 10 Nordeste 23 Nordeste 0 -- -- 95
2019-08-20 08:00:00 13.6 5 Este 10 Sudeste 0 -- -- 93
2019-08-20 07:00:00 12.9 7 Sudeste 17 Nordeste 0 -- -- 95
2019-08-20 06:00:00 12.9 9 Nordeste 21 Norte 0 -- -- 94
2019-08-20 05:00:00 13.5 10 Nordeste 20 Nordeste 0 -- -- 90
2019-08-20 04:00:00 14 8 Norte 14 Norte 0 -- -- 86
2019-08-20 03:00:00 14.7 6 Norte 12 Norte 0 -- -- 84
2019-08-20 02:00:00 15.9 7 Este 14 Sur 0 -- -- 79
2019-08-20 01:00:00 15.3 8 Sudeste 14 Sudeste 0.8 -- -- 84
2019-08-20 00:00:00 16.2 7 Nordeste 19 Nordeste 0 -- -- 68
2019-08-19 23:00:00 17.2 9 Nordeste 16 Nordeste 0 -- -- 63
2019-08-19 22:00:00 18 6 Este 18 Nordeste 0 -- -- 60
2019-08-19 21:00:00 19.2 12 Nordeste 22 Nordeste 0 -- -- 57
2019-08-19 20:00:00 20.5 13 Nordeste 23 Nordeste 0 -- -- 53
2019-08-19 19:00:00 22.4 12 Nordeste 27 Nordeste 0 -- -- 48
2019-08-19 18:00:00 22.8 15 Norte 30 Nordeste 0 -- -- 47
2019-08-19 17:00:00 22.6 21 Norte 37 Norte 0 -- -- 47
2019-08-19 16:00:00 26.8 16 Norte 32 Nordeste 0 -- -- 38
2019-08-19 15:00:00 30.2 14 Nordeste 25 Este 0 -- -- 30
2019-08-19 14:00:00 27.9 15 Este 26 Este 0 -- -- 35
2019-08-19 13:00:00 26.5 12 Este 22 Este 0 -- -- 39
2019-08-19 12:00:00 24.3 9 Este 21 Este 0 -- -- 45
2019-08-19 11:00:00 20.3 12 Este 17 Este 0 -- -- 58
2019-08-19 10:00:00 17.6 10 Este 15 Este 0 -- -- 67
2019-08-19 09:00:00 15.5 6 Nordeste 10 Nordeste 0 -- -- 77
2019-08-19 08:00:00 13 3 Nordeste 8 Nordeste 0 -- -- 89
2019-08-19 07:00:00 13.2 4 Nordeste 8 Nordeste 0 -- -- 89
2019-08-19 06:00:00 12.5 0 Calma 6 Norte 0 -- -- 89
2019-08-19 05:00:00 12.9 2 Norte 8 Norte 0 -- -- 85
2019-08-19 04:00:00 14.6 3 Norte 12 Oeste 0 -- -- 74
2019-08-19 03:00:00 16.6 5 Oeste 10 Oeste 0 -- -- 49
2019-08-19 02:00:00 15.5 3 Este 10 Oeste 0 -- -- 43
2019-08-19 01:00:00 17.2 4 Oeste 12 Oeste 0 -- -- 37
2019-08-19 00:00:00 19.5 9 Oeste 12 Noroeste 0 -- -- 32
2019-08-18 23:00:00 22.6 3 Oeste 10 Norte 0 -- -- 28
2019-08-18 22:00:00 24.2 3 Oeste 21 Oeste 0 -- -- 26
2019-08-18 21:00:00 27.7 11 Oeste 34 Oeste 0 -- -- 22
2019-08-18 20:00:00 30.9 17 Oeste 40 Oeste 0 -- -- 20
2019-08-18 19:00:00 32.1 22 Oeste 40 Oeste 0 -- -- 19
2019-08-18 18:00:00 30.8 15 Oeste 37 Oeste 0 -- -- 20
2019-08-18 17:00:00 31.5 21 Oeste 42 Oeste 0 -- -- 19
2019-08-18 16:00:00 32.9 19 Oeste 46 Sudoeste 0 -- -- 20
2019-08-18 15:00:00 31.7 24 Oeste 47 Oeste 0 -- -- 20
2019-08-18 14:00:00 31.5 22 Oeste 45 Oeste 0 -- -- 21
2019-08-18 13:00:00 30.8 23 Oeste 43 Oeste 0 -- -- 23
2019-08-18 12:00:00 30.8 21 Sudoeste 43 Oeste 0 -- -- 23
2019-08-18 11:00:00 30.2 19 Sudoeste 39 Sudoeste 0 -- -- 20
2019-08-18 10:00:00 28.6 12 Sudoeste 29 Sudoeste 0 -- -- 21
2019-08-18 09:00:00 26.1 14 Sudoeste 27 Sudoeste 0 -- -- 25
2019-08-18 08:00:00 18.6 3 Nordeste 20 Sudoeste 0 -- -- 44
2019-08-18 07:00:00 22.8 12 Sur 26 Sur 0 -- -- 33
2019-08-18 06:00:00 23.3 18 Sur 30 Sur 0 -- -- 36
2019-08-18 05:00:00 22.7 19 Sur 27 Sur 0 -- -- 41
2019-08-18 04:00:00 22.9 18 Sur 28 Sudoeste 0 -- -- 43
2019-08-18 03:00:00 23.7 21 Sur 28 Sudoeste 0 -- -- 38
2019-08-18 02:00:00 24 14 Sudoeste 22 Sur 0 -- -- 30
2019-08-18 01:00:00 22.9 3 Oeste 22 Sur 0 -- -- 32
2019-08-18 00:00:00 21.4 0 Calma 7 Oeste 0 -- -- 35
2019-08-17 23:00:00 22.4 0 Calma 5 Norte 0 -- -- 33
2019-08-17 22:00:00 24.4 0 Calma 10 Sudoeste 0 -- -- 29
2019-08-17 21:00:00 28.7 6 Sudoeste 26 Sudoeste 0 -- -- 22
2019-08-17 20:00:00 32 14 Oeste 30 Oeste 0 -- -- 21
2019-08-17 19:00:00 33.1 15 Oeste 31 Oeste 0 -- -- 18
2019-08-17 18:00:00 34.1 9 Oeste 37 Sudoeste 0 -- -- 19
2019-08-17 17:00:00 33.5 14 Oeste 33 Oeste 0 -- -- 18
2019-08-17 16:00:00 32.9 17 Oeste 39 Oeste 0 -- -- 18
2019-08-17 15:00:00 32 17 Oeste 40 Oeste 0 -- -- 19
2019-08-17 14:00:00 31.6 17 Oeste 39 Oeste 0 -- -- 19
2019-08-17 13:00:00 31.2 15 Oeste 33 Oeste 0 -- -- 23
2019-08-17 12:00:00 29.9 14 Oeste 25 Oeste 0 -- -- 28
2019-08-17 11:00:00 28.8 11 Noroeste 21 Oeste 0 -- -- 30
2019-08-17 10:00:00 27.8 3 Sudoeste 17 Sudoeste 0 -- -- 34
2019-08-17 09:00:00 23.4 3 Nordeste 12 Oeste 0 -- -- 41
2019-08-17 08:00:00 18.2 8 Oeste 15 Oeste 0 -- -- 50
2019-08-17 07:00:00 19.4 9 Oeste 13 Oeste 0 -- -- 47
2019-08-17 06:00:00 18.2 8 Oeste 13 Oeste 0 -- -- 50
2019-08-17 05:00:00 19.4 8 Oeste 17 Oeste 0 -- -- 47
2019-08-17 04:00:00 20.1 3 Oeste 17 Noroeste 0 -- -- 45
2019-08-17 03:00:00 17.3 0 Calma 6 Norte 0 -- -- 49
2019-08-17 02:00:00 17.2 3 Sudoeste 12 Oeste 0 -- -- 47
2019-08-17 01:00:00 18.6 0 Calma 6 Oeste 0 -- -- 45
2019-08-17 00:00:00 18.4 3 Oeste 9 Oeste 0 -- -- 49
2019-08-16 23:00:00 20.6 0 Calma 7 Sur 0 -- -- 50
2019-08-16 22:00:00 23.6 3 Sur 16 Sur 0 -- -- 43
2019-08-16 21:00:00 27.1 8 Sur 20 Oeste 0 -- -- 36
2019-08-16 20:00:00 31.1 11 Oeste 28 Oeste 0 -- -- 24
2019-08-16 19:00:00 32.2 12 Oeste 28 Oeste 0 -- -- 22
2019-08-16 18:00:00 32.5 14 Oeste 34 Oeste 0 -- -- 23
2019-08-16 17:00:00 32.5 14 Oeste 33 Oeste 0 -- -- 23
2019-08-16 16:00:00 32.3 12 Oeste 29 Sudoeste 0 -- -- 23
2019-08-16 15:00:00 30.8 6 Oeste 20 Sudeste 0 -- -- 31
2019-08-16 14:00:00 29.7 9 Este 22 Este 0 -- -- 35
2019-08-16 13:00:00 29.7 11 Este 22 Nordeste 0 -- -- 37
2019-08-16 12:00:00 28.6 8 Nordeste 26 Este 0 -- -- 39
2019-08-16 11:00:00 28.1 3 Nordeste 10 Este 0 -- -- 40
2019-08-16 10:00:00 23.6 4 Este 8 Sudeste 0 -- -- 51
2019-08-16 09:00:00 20.2 0 Calma 4 Nordeste 0 -- -- 57
2019-08-16 08:00:00 13.9 3 Oeste 5 Sudoeste 0 -- -- 77
2019-08-16 07:00:00 12.6 4 Oeste 8 Oeste 0 -- -- 78
2019-08-16 06:00:00 13.2 3 Oeste 8 Oeste 0 -- -- 75
2019-08-16 05:00:00 13.7 2 Sudoeste 4 Sudoeste 0 -- -- 72
2019-08-16 04:00:00 14.8 0 Calma 9 Sudeste 0 -- -- 68
2019-08-16 03:00:00 15.4 4 Este 9 Sudeste 0 -- -- 66
2019-08-16 02:00:00 14.9 4 Este 9 Sudeste 0 -- -- 67
2019-08-16 01:00:00 16.2 7 Sudeste 15 Sudeste 0 -- -- 63
2019-08-16 00:00:00 16.9 8 Este 15 Nordeste 0 -- -- 61
2019-08-15 23:00:00 17.8 10 Este 26 Nordeste 0 -- -- 58
2019-08-15 22:00:00 19.4 17 Nordeste 27 Nordeste 0 -- -- 54
2019-08-15 21:00:00 22.4 17 Nordeste 31 Nordeste 0 -- -- 48
2019-08-15 20:00:00 28.3 8 Nordeste 18 Nordeste 0 -- -- 39
2019-08-15 19:00:00 28.9 9 Noroeste 28 Norte 0 -- -- 38
2019-08-15 18:00:00 28.5 15 Nordeste 26 Nordeste 0 -- -- 39
2019-08-15 17:00:00 29.2 12 Norte 28 Norte 0 -- -- 35
2019-08-15 16:00:00 27.8 11 Nordeste 28 Nordeste 0 -- -- 37
2019-08-15 15:00:00 28.5 13 Nordeste 27 Nordeste 0 -- -- 36
2019-08-15 14:00:00 27.2 10 Nordeste 23 Nordeste 0 -- -- 37
2019-08-15 13:00:00 26.4 9 Nordeste 19 Nordeste 0 -- -- 41
2019-08-15 12:00:00 25.3 6 Este 18 Este 0 -- -- 45
2019-08-15 11:00:00 22.1 8 Sudeste 16 Nordeste 0 -- -- 56
2019-08-15 10:00:00 19.4 8 Nordeste 18 Nordeste 0 -- -- 66
2019-08-15 09:00:00 16.7 10 Nordeste 14 Nordeste 0 -- -- 76
2019-08-15 08:00:00 12.4 0 Calma 4 Norte 0 -- -- 80
2019-08-15 07:00:00 10.8 3 Norte 4 Norte 0 -- -- 79
2019-08-15 06:00:00 11.2 0 Calma 5 Oeste 0 -- -- 80
2019-08-15 05:00:00 11.9 0 Calma 6 Oeste 0 -- -- 76
2019-08-15 04:00:00 12.4 2 Oeste 4 Oeste 0 -- -- 73
2019-08-15 03:00:00 13.7 0 Calma 5 Este 0 -- -- 66
2019-08-15 02:00:00 15.9 5 Sudeste 8 Sudeste 0 -- -- 61
2019-08-15 01:00:00 17 4 Nordeste 12 Este 0 -- -- 54
2019-08-15 00:00:00 17.4 2 Nordeste 8 Este 0 -- -- 44
2019-08-14 23:00:00 18.7 2 Sur 9 Norte 0 -- -- 41
2019-08-14 22:00:00 21.6 5 Norte 17 Norte 0 -- -- 35
2019-08-14 21:00:00 24.9 5 Noroeste 16 Noroeste 0 -- -- 26
2019-08-14 20:00:00 28.6 9 Norte 23 Noroeste 0 -- -- 23
2019-08-14 19:00:00 29.3 10 Norte 21 Norte 0 -- -- 23
2019-08-14 18:00:00 29.9 9 Noroeste 31 Nordeste 0 -- -- 22
2019-08-14 17:00:00 29.6 10 Noroeste 36 Nordeste 0 -- -- 22
2019-08-14 16:00:00 28.3 10 Norte 28 Noroeste 0 -- -- 23
2019-08-14 15:00:00 27.2 10 Oeste 23 Oeste 0 -- -- 23
2019-08-14 14:00:00 26.6 10 Noroeste 29 Noroeste 0 -- -- 25
2019-08-14 13:00:00 26.4 9 Noroeste 26 Oeste 0 -- -- 27
2019-08-14 12:00:00 24.6 9 Oeste 21 Oeste 0 -- -- 27
2019-08-14 11:00:00 22.7 9 Oeste 19 Oeste 0 -- -- 34
2019-08-14 10:00:00 21.2 3 Nordeste 10 Sur 0 -- -- 49
2019-08-14 09:00:00 14.4 0 Calma 9 Sudoeste 0 -- -- 65
2019-08-14 08:00:00 10.1 2 Noroeste 16 Oeste 0 -- -- 78
2019-08-14 07:00:00 9.3 3 Oeste 9 Oeste 0 -- -- 82
2019-08-14 06:00:00 9.6 2 Oeste 15 Oeste 0 -- -- 72
2019-08-14 05:00:00 9.4 5 Oeste 11 Sudoeste 0 -- -- 71
2019-08-14 04:00:00 9 0 Calma 11 Sudoeste 0 -- -- 73
2019-08-14 03:00:00 9.1 6 Oeste 8 Oeste 0 -- -- 73
2019-08-14 02:00:00 9.6 3 Sudoeste 7 Oeste 0 -- -- 70
2019-08-14 01:00:00 10.5 2 Oeste 5 Oeste 0 -- -- 66
2019-08-14 00:00:00 12.8 3 Este 8 Nordeste 0 -- -- 58
2019-08-13 23:00:00 14.5 0 Calma 10 Sudeste 0 -- -- 53
2019-08-13 22:00:00 16.4 3 Sudoeste 18 Este 0 -- -- 46
2019-08-13 21:00:00 19.5 12 Nordeste 22 Nordeste 0 -- -- 38
2019-08-13 20:00:00 23.5 13 Nordeste 23 Norte 0 -- -- 29
2019-08-13 19:00:00 24.8 14 Norte 26 Norte 0 -- -- 24
2019-08-13 18:00:00 25.5 13 Norte 27 Noroeste 0 -- -- 26
2019-08-13 17:00:00 23.9 10 Nordeste 29 Norte 0 -- -- 33
2019-08-13 16:00:00 23.1 14 Nordeste 27 Nordeste 0 -- -- 36
2019-08-13 15:00:00 24.2 6 Nordeste 26 Nordeste 0 -- -- 36
2019-08-13 14:00:00 24 9 Este 21 Nordeste 0 -- -- 36
2019-08-13 13:00:00 21.9 10 Nordeste 20 Nordeste 0 -- -- 40
2019-08-13 12:00:00 20.3 9 Sudeste 19 Este 0 -- -- 42
2019-08-13 11:00:00 18.2 8 Este 19 Sudeste 0 -- -- 46
2019-08-13 10:00:00 14.8 9 Sudeste 16 Sudeste 0 -- -- 55
2019-08-13 09:00:00 11.9 9 Sudeste 16 Sudeste 0 -- -- 65
2019-08-13 08:00:00 10.7 6 Sudeste 13 Sudeste 0 -- -- 71
2019-08-13 07:00:00 10.3 5 Sudeste 13 Sudeste 0 -- -- 72
2019-08-13 06:00:00 10.2 9 Sudeste 17 Sudeste 0 -- -- 72
2019-08-13 05:00:00 10.3 12 Este 17 Este 0 -- -- 72
2019-08-13 04:00:00 10.3 12 Sudeste 18 Este 0 -- -- 74
2019-08-13 03:00:00 10.2 10 Sudeste 16 Sudeste 0 -- -- 77
2019-08-13 02:00:00 10.6 9 Sudeste 16 Este 0 -- -- 74
2019-08-13 01:00:00 11 7 Sudeste 13 Sudeste 0 -- -- 72
2019-08-13 00:00:00 11.7 9 Sudeste 19 Este 0 -- -- 69
2019-08-12 23:00:00 12.8 12 Este 17 Este 0 -- -- 64
2019-08-12 22:00:00 14.3 10 Nordeste 26 Nordeste 0 -- -- 58
2019-08-12 21:00:00 16.5 15 Nordeste 31 Nordeste 0 -- -- 47
2019-08-12 20:00:00 19.4 16 Nordeste 37 Este 0 -- -- 39
2019-08-12 19:00:00 21.3 19 Nordeste 37 Nordeste 0 -- -- 36
2019-08-12 18:00:00 23.2 20 Nordeste 35 Norte 0 -- -- 31
2019-08-12 17:00:00 24 10 Norte 32 Nordeste 0 -- -- 24
2019-08-12 16:00:00 23.5 14 Norte 26 Norte 0 -- -- 25
2019-08-12 15:00:00 23.1 6 Noroeste 25 Nordeste 0 -- -- 30
2019-08-12 14:00:00 21.6 12 Noroeste 22 Norte 0 -- -- 33
2019-08-12 13:00:00 20.9 10 Norte 24 Norte 0 -- -- 38
2019-08-12 12:00:00 19.1 10 Norte 25 Norte 0 -- -- 47
2019-08-12 11:00:00 17.6 11 Noroeste 21 Noroeste 0 -- -- 51
2019-08-12 10:00:00 16 7 Norte 15 Norte 0 -- -- 61
2019-08-12 09:00:00 13 7 Oeste 17 Oeste 0 -- -- 77
2019-08-12 08:00:00 11 5 Oeste 10 Oeste 0 -- -- 85
2019-08-12 07:00:00 10.6 4 Noroeste 12 Oeste 0 -- -- 85
2019-08-12 06:00:00 10.8 8 Oeste 11 Oeste 0 -- -- 83
2019-08-12 05:00:00 11.4 5 Oeste 6 Oeste 0 -- -- 81
2019-08-12 04:00:00 12.1 0 Calma 7 Sudoeste 0 -- -- 79
2019-08-12 03:00:00 13.2 2 Sur 4 Este 0 -- -- 74
2019-08-12 02:00:00 13.9 2 Este 6 Este 0 -- -- 73
2019-08-12 01:00:00 15 2 Nordeste 12 Este 0 -- -- 70
2019-08-12 00:00:00 16.2 6 Este 15 Norte 0 -- -- 65
2019-08-11 23:00:00 17.3 8 Norte 19 Norte 0 -- -- 60
2019-08-11 22:00:00 21.1 8 Oeste 20 Noroeste 0 -- -- 25
2019-08-11 21:00:00 23.7 12 Oeste 30 Noroeste 0 -- -- 21
2019-08-11 20:00:00 26.5 17 Oeste 37 Oeste 0 -- -- 19
2019-08-11 19:00:00 26.8 18 Oeste 39 Oeste 0 -- -- 21
2019-08-11 18:00:00 28.6 21 Oeste 45 Oeste 0 -- -- 21
2019-08-11 17:00:00 28.6 16 Oeste 48 Oeste 0 -- -- 19
2019-08-11 16:00:00 28 22 Oeste 39 Oeste 0 -- -- 21
2019-08-11 15:00:00 27.9 16 Oeste 39 Oeste 0 -- -- 22
2019-08-11 14:00:00 27.6 18 Oeste 33 Oeste 0 -- -- 24
2019-08-11 13:00:00 26.7 12 Oeste 29 Sudoeste 0 -- -- 28
2019-08-11 12:00:00 25.7 7 Nordeste 17 Nordeste 0 -- -- 41
2019-08-11 11:00:00 22.4 8 Oeste 13 Oeste 0 -- -- 51
2019-08-11 10:00:00 20.8 6 Norte 24 Noroeste 0 -- -- 53
2019-08-11 09:00:00 18.3 13 Noroeste 27 Noroeste 0 -- -- 60
2019-08-11 08:00:00 16.6 2 Norte 6 Norte 0 -- -- 83
2019-08-11 07:00:00 16.2 4 Oeste 9 Sudoeste 0 -- -- 83
2019-08-11 06:00:00 17.4 6 Sur 16 Sudoeste 0 -- -- 80
2019-08-11 05:00:00 19.3 11 Sudoeste 25 Sur 0 -- -- 74
2019-08-11 04:00:00 20.8 17 Sur 28 Sur 0 -- -- 72
2019-08-11 03:00:00 17.9 3 Noroeste 7 Norte 0 -- -- 73
2019-08-11 02:00:00 19 6 Sur 9 Sur 0 -- -- 69
2019-08-11 01:00:00 19.4 2 Nordeste 9 Este 0 -- -- 58
2019-08-11 00:00:00 20.1 0 Calma 7 Este 0 -- -- 55
2019-08-10 23:00:00 21.3 0 Calma 7 Nordeste 0 -- -- 52
2019-08-10 22:00:00 23.5 4 Sudeste 12 Nordeste 0 -- -- 46
2019-08-10 21:00:00 26.9 5 Noroeste 25 Oeste 0 -- -- 32
2019-08-10 20:00:00 30 12 Oeste 28 Oeste 0 -- -- 29
2019-08-10 19:00:00 31 15 Oeste 33 Sudoeste 0 -- -- 25
2019-08-10 18:00:00 31.9 13 Oeste 40 Oeste 0 -- -- 24
2019-08-10 17:00:00 31.2 19 Oeste 36 Oeste 0 -- -- 25
2019-08-10 16:00:00 31.1 16 Oeste 38 Oeste 0 -- -- 24
2019-08-10 15:00:00 30.5 17 Sudoeste 31 Oeste 0 -- -- 26
2019-08-10 14:00:00 29 15 Oeste 28 Oeste 0 -- -- 32
2019-08-10 13:00:00 27.6 10 Oeste 21 Oeste 0 -- -- 37
2019-08-10 12:00:00 24.6 8 Nordeste 14 Norte 0 -- -- 51
2019-08-10 11:00:00 23.6 8 Sudeste 15 Este 0 -- -- 54
2019-08-10 10:00:00 21.6 6 Este 10 Este 0 -- -- 59
2019-08-10 09:00:00 18.9 3 Sudeste 6 Sudeste 0 -- -- 68
2019-08-10 08:00:00 15.3 0 Calma 8 Sur 0 -- -- 84
2019-08-10 07:00:00 14.7 4 Sudoeste 8 Oeste 0 -- -- 87
2019-08-10 06:00:00 14.9 2 Oeste 9 Sudoeste 0 -- -- 86
2019-08-10 05:00:00 15.6 0 Calma 5 Oeste 0 -- -- 81
2019-08-10 04:00:00 16 5 Oeste 9 Oeste 0 -- -- 82
2019-08-10 03:00:00 16.2 5 Oeste 9 Oeste 0 -- -- 79
2019-08-10 02:00:00 16.2 5 Oeste 8 Oeste 0 -- -- 78
2019-08-10 01:00:00 17.7 8 Sudoeste 13 Sudoeste 0 -- -- 73
2019-08-10 00:00:00 19.1 4 Sudeste 17 Norte 0 -- -- 71
2019-08-09 23:00:00 20.6 14 Norte 25 Norte 0 -- -- 69
2019-08-09 22:00:00 25.2 9 Oeste 27 Oeste 0 -- -- 46
2019-08-09 21:00:00 26.9 14 Oeste 34 Oeste 0 -- -- 41
2019-08-09 20:00:00 29 21 Oeste 43 Sudoeste 0 -- -- 36
2019-08-09 19:00:00 30 23 Oeste 42 Oeste 0 -- -- 33
2019-08-09 18:00:00 30.8 24 Oeste 45 Oeste 0 -- -- 32
2019-08-09 17:00:00 30.6 27 Oeste 51 Oeste 0 -- -- 30
2019-08-09 16:00:00 30.8 19 Oeste 43 Oeste 0 -- -- 31
2019-08-09 15:00:00 29.6 27 Oeste 48 Oeste 0 -- -- 33
2019-08-09 14:00:00 29.5 18 Oeste 38 Oeste 0 -- -- 33
2019-08-09 13:00:00 28.9 18 Oeste 35 Sudoeste 0 -- -- 32
2019-08-09 12:00:00 27.8 21 Oeste 42 Oeste 0 -- -- 32
2019-08-09 11:00:00 26.4 24 Oeste 41 Oeste 0 -- -- 37
2019-08-09 10:00:00 24.6 20 Oeste 34 Oeste 0 -- -- 45
2019-08-09 09:00:00 22.8 14 Sudoeste 28 Sudoeste 0 -- -- 52
2019-08-09 08:00:00 21.6 12 Sudoeste 20 Sudoeste 0 -- -- 50
2019-08-09 07:00:00 18.9 13 Sur 22 Sur 0 -- -- 55
2019-08-09 06:00:00 20.6 14 Sur 22 Sur 0 -- -- 50
2019-08-09 05:00:00 18.6 4 Nordeste 17 Sudoeste 0 -- -- 57
2019-08-09 04:00:00 18.2 2 Oeste 8 Norte 0 -- -- 56
2019-08-09 03:00:00 19 0 Calma 7 Sudoeste 0 -- -- 54
2019-08-09 02:00:00 22.8 6 Sudoeste 23 Sur 0 -- -- 43
2019-08-09 01:00:00 22.5 14 Sur 20 Sur 0 -- -- 44
2019-08-09 00:00:00 24.4 10 Sur 14 Sudoeste 0 -- -- 40
2019-08-08 23:00:00 24.1 9 Sur 18 Sudoeste 0 -- -- 41
2019-08-08 22:00:00 26 11 Sudoeste 19 Sudoeste 0 -- -- 37
2019-08-08 21:00:00 27.1 11 Sudoeste 31 Sudoeste 0 -- -- 36
2019-08-08 20:00:00 29.8 17 Oeste 36 Oeste 0 -- -- 32
2019-08-08 19:00:00 31.2 15 Oeste 32 Oeste 0 -- -- 31
2019-08-08 18:00:00 31 20 Oeste 37 Oeste 0 -- -- 30
2019-08-08 17:00:00 31.1 18 Oeste 36 Oeste 0 -- -- 31
2019-08-08 16:00:00 30.9 15 Sudoeste 35 Oeste 0 -- -- 31
2019-08-08 15:00:00 29.8 18 Oeste 35 Oeste 0 -- -- 34
2019-08-08 14:00:00 28.6 19 Oeste 35 Oeste 0 -- -- 35
2019-08-08 13:00:00 28.1 17 Oeste 28 Oeste 0 -- -- 37
2019-08-08 12:00:00 27.4 13 Oeste 24 Oeste 0 -- -- 33
2019-08-08 11:00:00 24.7 14 Oeste 24 Oeste 0 -- -- 35
2019-08-08 10:00:00 22 16 Oeste 27 Oeste 0 -- -- 49
2019-08-08 09:00:00 19.8 11 Oeste 19 Oeste 0 -- -- 55
2019-08-08 08:00:00 15.9 4 Oeste 10 Oeste 0 -- -- 69
2019-08-08 07:00:00 14.7 3 Oeste 9 Noroeste 0 -- -- 72
2019-08-08 06:00:00 16.6 6 Oeste 22 Oeste 0 -- -- 66
2019-08-08 05:00:00 16.8 8 Oeste 16 Oeste 0 -- -- 64
2019-08-08 04:00:00 16 5 Norte 11 Noroeste 0 -- -- 65
2019-08-08 03:00:00 16 4 Oeste 6 Oeste 0 -- -- 64
2019-08-08 02:00:00 17.1 2 Norte 20 Sudoeste 0 -- -- 58
2019-08-08 01:00:00 20.1 6 Oeste 21 Sudoeste 0 -- -- 52
2019-08-08 00:00:00 21.1 9 Sudoeste 21 Sudoeste 0 -- -- 47
2019-08-07 23:00:00 21.7 5 Oeste 17 Oeste 0 -- -- 43
2019-08-07 22:00:00 22.6 7 Oeste 19 Sudoeste 0 -- -- 39
2019-08-07 21:00:00 24.2 11 Oeste 20 Oeste 0 -- -- 35
2019-08-07 20:00:00 24.6 9 Oeste 22 Oeste 0 -- -- 34
2019-08-07 19:00:00 25 13 Oeste 26 Oeste 0 -- -- 31
2019-08-07 18:00:00 25.3 15 Oeste 31 Oeste 0 -- -- 34
2019-08-07 17:00:00 25.5 18 Oeste 34 Oeste 0 -- -- 32
2019-08-07 16:00:00 25.7 19 Oeste 31 Oeste 0 -- -- 32
2019-08-07 15:00:00 25.5 16 Oeste 31 Oeste 0 -- -- 31
2019-08-07 14:00:00 25.3 14 Oeste 27 Oeste 0 -- -- 31
2019-08-07 13:00:00 25 15 Oeste 29 Oeste 0 -- -- 32
2019-08-07 12:00:00 25.2 14 Oeste 31 Oeste 0 -- -- 32
2019-08-07 11:00:00 24.8 17 Oeste 29 Oeste 0 -- -- 37
2019-08-07 10:00:00 23.1 11 Noroeste 23 Oeste 0 -- -- 38
2019-08-07 09:00:00 21.7 8 Oeste 21 Sudoeste 0 -- -- 39
2019-08-07 08:00:00 21.1 8 Oeste 19 Sudoeste 0 -- -- 38
2019-08-07 07:00:00 19.7 3 Nordeste 15 Noroeste 0 -- -- 40
2019-08-07 06:00:00 21.7 8 Noroeste 18 Oeste 0 -- -- 36
2019-08-07 05:00:00 22.5 9 Oeste 27 Sudoeste 0 -- -- 34
2019-08-07 04:00:00 23.2 17 Sudoeste 36 Sudoeste 0 -- -- 32
2019-08-07 03:00:00 23.6 15 Sudoeste 32 Sudoeste 0 -- -- 30
2019-08-07 02:00:00 24.7 18 Sudoeste 31 Sudoeste 0 -- -- 24
2019-08-07 01:00:00 25.3 15 Sudoeste 36 Sudoeste 0 -- -- 20
2019-08-07 00:00:00 26 18 Sudoeste 32 Sudoeste 0 -- -- 17
2019-08-06 23:00:00 26.9 17 Sudoeste 29 Sudoeste 0 -- -- 16
2019-08-06 22:00:00 26.1 6 Oeste 15 Oeste 0 -- -- 19
2019-08-06 21:00:00 28.3 10 Sudoeste 31 Oeste 0 -- -- 17
2019-08-06 20:00:00 30.9 14 Oeste 31 Oeste 0 -- -- 14
2019-08-06 19:00:00 32.1 18 Oeste 30 Oeste 0 -- -- 15
2019-08-06 18:00:00 32.6 16 Oeste 33 Oeste 0 -- -- 15
2019-08-06 17:00:00 33.4 13 Oeste 28 Oeste 0 -- -- 17
2019-08-06 16:00:00 32.1 13 Sudoeste 32 Oeste 0 -- -- 18
2019-08-06 15:00:00 32 22 Oeste 38 Oeste 0 -- -- 18
2019-08-06 14:00:00 31.7 11 Oeste 35 Sudoeste 0 -- -- 21
2019-08-06 13:00:00 30.7 15 Oeste 39 Oeste 0 -- -- 21
2019-08-06 12:00:00 29.5 22 Oeste 38 Oeste 0 -- -- 23
2019-08-06 11:00:00 28.7 19 Oeste 34 Oeste 0 -- -- 24
2019-08-06 10:00:00 28.2 16 Oeste 28 Sudoeste 0 -- -- 24
2019-08-06 09:00:00 25.8 17 Sudoeste 26 Sur 0 -- -- 26
2019-08-06 08:00:00 18.4 4 Nordeste 12 Nordeste 0 -- -- 53
2019-08-06 07:00:00 18.5 4 Sudoeste 9 Oeste 0 -- -- 56
2019-08-06 06:00:00 20.2 6 Oeste 17 Sudoeste 0 -- -- 57
2019-08-06 05:00:00 19.9 7 Oeste 15 Sudoeste 0 -- -- 60
2019-08-06 04:00:00 19.9 8 Oeste 17 Sur 0 -- -- 34
2019-08-06 03:00:00 18.3 3 Nordeste 8 Oeste 0 -- -- 36
2019-08-06 02:00:00 17.5 5 Oeste 8 Oeste 0 -- -- 38
2019-08-06 01:00:00 19.9 0 Calma 10 Oeste 0 -- -- 32
2019-08-06 00:00:00 21.1 7 Oeste 11 Oeste 0 -- -- 30
2019-08-05 23:00:00 22 6 Oeste 10 Oeste 0 -- -- 29
2019-08-05 22:00:00 24.5 5 Oeste 10 Oeste 0 -- -- 24
2019-08-05 21:00:00 28.6 8 Oeste 22 Oeste 0 -- -- 18
2019-08-05 20:00:00 32.3 14 Oeste 26 Oeste 0 -- -- 15
2019-08-05 19:00:00 33.4 14 Oeste 33 Oeste 0 -- -- 17
2019-08-05 18:00:00 33.2 20 Oeste 37 Oeste 0 -- -- 17
2019-08-05 17:00:00 33.8 17 Sudoeste 34 Oeste 0 -- -- 17
2019-08-05 16:00:00 33.4 15 Oeste 37 Oeste 0 -- -- 17
2019-08-05 15:00:00 33.4 9 Oeste 31 Oeste 0 -- -- 17
2019-08-05 14:00:00 32.4 10 Oeste 33 Sudoeste 0 -- -- 20
2019-08-05 13:00:00 31.3 13 Oeste 29 Oeste 0 -- -- 20
2019-08-05 12:00:00 32.2 5 Noroeste 25 Oeste 0 -- -- 21
2019-08-05 11:00:00 30.1 11 Oeste 22 Oeste 0 -- -- 23
2019-08-05 10:00:00 28 4 Nordeste 8 Este 0 -- -- 30
2019-08-05 09:00:00 22.7 3 Este 6 Sudeste 0 -- -- 40
2019-08-05 08:00:00 17.4 0 Calma 8 Sudoeste 0 -- -- 46
2019-08-05 07:00:00 16.3 0 Calma 15 Oeste 0 -- -- 44
2019-08-05 06:00:00 17.2 4 Oeste 10 Sudoeste 0 -- -- 38
2019-08-05 05:00:00 18.6 7 Oeste 12 Oeste 0 -- -- 35
2019-08-05 04:00:00 17.1 2 Sur 9 Sur 0 -- -- 39
2019-08-05 03:00:00 16.8 2 Oeste 13 Oeste 0 -- -- 39
2019-08-05 02:00:00 18 5 Oeste 15 Oeste 0 -- -- 36
2019-08-05 01:00:00 18.6 4 Sudoeste 10 Sudoeste 0 -- -- 36
2019-08-05 00:00:00 20.4 6 Oeste 9 Oeste 0 -- -- 32
2019-08-04 23:00:00 22.5 4 Oeste 11 Noroeste 0 -- -- 28
2019-08-04 22:00:00 25.2 5 Oeste 11 Oeste 0 -- -- 25
2019-08-04 21:00:00 28.8 7 Oeste 25 Oeste 0 -- -- 20
2019-08-04 20:00:00 31.5 16 Oeste 30 Oeste 0 -- -- 20
2019-08-04 19:00:00 32.7 17 Oeste 37 Oeste 0 -- -- 19
2019-08-04 18:00:00 33.6 9 Noroeste 33 Oeste 0 -- -- 19
2019-08-04 17:00:00 33.2 14 Oeste 35 Oeste 0 -- -- 18
2019-08-04 16:00:00 32.9 18 Oeste 35 Sudoeste 0 -- -- 18
2019-08-04 15:00:00 32.8 19 Oeste 45 Sudoeste 0 -- -- 19
2019-08-04 14:00:00 32.4 12 Oeste 30 Oeste 0 -- -- 20
2019-08-04 13:00:00 32 8 Oeste 27 Oeste 0 -- -- 21
2019-08-04 12:00:00 31.3 10 Sudoeste 31 Oeste 0 -- -- 22
2019-08-04 11:00:00 30.1 13 Oeste 26 Oeste 0 -- -- 22
2019-08-04 10:00:00 28.1 7 Oeste 15 Oeste 0 -- -- 27
2019-08-04 09:00:00 25.2 6 Oeste 14 Oeste 0 -- -- 32
2019-08-04 08:00:00 21.8 7 Oeste 15 Oeste 0 -- -- 45
2019-08-04 07:00:00 19.5 8 Oeste 13 Oeste 0 -- -- 58
2019-08-04 06:00:00 18.1 2 Sudoeste 9 Oeste 0 -- -- 64
2019-08-04 05:00:00 18.7 0 Calma 15 Oeste 0 -- -- 61
2019-08-04 04:00:00 20.8 8 Oeste 26 Sudoeste 0 -- -- 54
2019-08-04 03:00:00 23.3 18 Sudoeste 25 Sudoeste 0 -- -- 45
2019-08-04 02:00:00 17.4 3 Oeste 9 Sudoeste 0 -- -- 43
2019-08-04 01:00:00 18.3 3 Oeste 9 Oeste 0 -- -- 37
2019-08-04 00:00:00 21.2 8 Oeste 12 Oeste 0 -- -- 30
2019-08-03 23:00:00 21.5 8 Oeste 10 Oeste 0 -- -- 29
2019-08-03 22:00:00 23.2 4 Oeste 10 Oeste 0 -- -- 28
2019-08-03 21:00:00 28.4 8 Oeste 25 Oeste 0 -- -- 20
2019-08-03 20:00:00 31.4 17 Oeste 33 Sudoeste 0 -- -- 18
2019-08-03 19:00:00 32.5 17 Oeste 35 Oeste 0 -- -- 17
2019-08-03 18:00:00 32.8 19 Oeste 37 Oeste 0 -- -- 18
2019-08-03 17:00:00 32.9 16 Oeste 36 Sudoeste 0 -- -- 16
2019-08-03 16:00:00 33.1 15 Sudoeste 43 Oeste 0 -- -- 18
2019-08-03 15:00:00 32.9 19 Oeste 33 Oeste 0 -- -- 19
2019-08-03 14:00:00 32.7 7 Nordeste 24 Noroeste 0 -- -- 29
2019-08-03 13:00:00 31.8 9 Sudeste 17 Sudeste 0 -- -- 31
2019-08-03 12:00:00 30 10 Este 17 Este 0 -- -- 36
2019-08-03 11:00:00 27.8 7 Este 13 Sudeste 0 -- -- 41
2019-08-03 10:00:00 24.4 6 Sudeste 12 Sudeste 0 -- -- 48
2019-08-03 09:00:00 20.2 0 Calma 4 Este 0 -- -- 59
2019-08-03 08:00:00 14.8 0 Calma 5 Oeste 0 -- -- 78
2019-08-03 07:00:00 13.1 3 Oeste 5 Oeste 0 -- -- 82
2019-08-03 06:00:00 13.5 0 Calma 5 Oeste 0 -- -- 80
2019-08-03 05:00:00 14.2 0 Calma 5 Oeste 0 -- -- 78
2019-08-03 04:00:00 16.2 2 Sudeste 14 Sudeste 0 -- -- 71
2019-08-03 03:00:00 15.7 2 Este 4 Sudeste 0 -- -- 71
2019-08-03 02:00:00 16.7 0 Calma 6 Oeste 0 -- -- 65
2019-08-03 01:00:00 18.3 4 Oeste 10 Sur 0 -- -- 60
2019-08-03 00:00:00 20.9 7 Sudeste 17 Este 0 -- -- 52
2019-08-02 23:00:00 22.2 10 Este 22 Este 0 -- -- 48
2019-08-02 22:00:00 23.9 12 Este 28 Este 0 -- -- 44
2019-08-02 21:00:00 25.9 15 Este 30 Este 0 -- -- 40
2019-08-02 20:00:00 28.4 20 Nordeste 31 Nordeste 0 -- -- 34
2019-08-02 19:00:00 29.9 18 Nordeste 33 Nordeste 0 -- -- 32
2019-08-02 18:00:00 31 14 Nordeste 33 Nordeste 0 -- -- 28
2019-08-02 17:00:00 31.9 12 Nordeste 23 Este 0 -- -- 27
2019-08-02 16:00:00 30.4 14 Nordeste 40 Este 0 -- -- 29
2019-08-02 15:00:00 30.1 16 Nordeste 32 Nordeste 0 -- -- 30
2019-08-02 14:00:00 29.1 7 Sudoeste 22 Nordeste 0 -- -- 29
2019-08-02 13:00:00 28.8 6 Norte 18 Nordeste 0 -- -- 37
2019-08-02 12:00:00 26.9 8 Este 18 Sudeste 0 -- -- 44
2019-08-02 11:00:00 23.8 10 Este 14 Este 0 -- -- 57
2019-08-02 10:00:00 20.8 8 Nordeste 14 Nordeste 0 -- -- 67
2019-08-02 09:00:00 18 3 Nordeste 5 Nordeste 0 -- -- 80
2019-08-02 08:00:00 13.5 0 Calma 6 Oeste 0 -- -- 93
2019-08-02 07:00:00 12 2 Oeste 3 Sudoeste 0 -- -- 92
2019-08-02 06:00:00 12.9 0 Calma 3 Sudoeste 0 -- -- 93
2019-08-02 05:00:00 13.2 0 Calma 4 Sudoeste 0 -- -- 90
2019-08-02 04:00:00 14.1 3 Oeste 6 Nordeste 0 -- -- 90
2019-08-02 03:00:00 14.7 0 Calma 7 Norte 0 -- -- 87
2019-08-02 02:00:00 16.4 3 Este 13 Nordeste 0 -- -- 84
2019-08-02 01:00:00 18.4 6 Nordeste 11 Nordeste 0 -- -- 76
2019-08-02 00:00:00 20 8 Nordeste 21 Norte 0 -- -- 63
2019-08-01 23:00:00 22.7 12 Nordeste 23 Nordeste 0 -- -- 46
2019-08-01 22:00:00 23.9 6 Oeste 22 Oeste 0 -- -- 32
2019-08-01 21:00:00 27.3 13 Oeste 26 Oeste 0 -- -- 28
2019-08-01 20:00:00 30 13 Oeste 27 Oeste 0 -- -- 27
2019-08-01 19:00:00 29.4 12 Oeste 34 Oeste 0 -- -- 27
2019-08-01 18:00:00 31.5 15 Oeste 30 Oeste 0 -- -- 25
2019-08-01 17:00:00 30.4 10 Oeste 37 Oeste 0 -- -- 26
2019-08-01 16:00:00 29.9 14 Oeste 32 Oeste 0 -- -- 27
2019-08-01 15:00:00 29.9 6 Norte 19 Este 0 -- -- 34
2019-08-01 14:00:00 29.5 6 Este 19 Este 0 -- -- 34
2019-08-01 13:00:00 27.2 9 Sudeste 19 Este 0 -- -- 38
2019-08-01 12:00:00 25.6 10 Este 20 Este 0 -- -- 43
2019-08-01 11:00:00 23.7 5 Norte 15 Nordeste 0 -- -- 44
2019-08-01 10:00:00 22.4 5 Sudeste 12 Este 0 -- -- 45
2019-08-01 09:00:00 18.4 4 Este 8 Este 0 -- -- 65
2019-08-01 08:00:00 14.4 3 Oeste 5 Oeste 0 -- -- 88
2019-08-01 07:00:00 13.5 0 Calma 6 Sur 0 -- -- 92
2019-08-01 06:00:00 13.6 3 Sur 5 Sudeste 0 -- -- 93
2019-08-01 05:00:00 14.2 4 Sudeste 9 Este 0 -- -- 93
2019-08-01 04:00:00 14.9 3 Este 12 Sudeste 0 -- -- 91
2019-08-01 03:00:00 16.2 6 Sudeste 17 Sudeste 0 -- -- 88
2019-08-01 02:00:00 16.7 13 Sudeste 18 Sudeste 0 -- -- 85
2019-08-01 01:00:00 17.3 4 Sudeste 14 Sudeste 0 -- -- 82
2019-08-01 00:00:00 17.8 9 Sudeste 13 Este 0 -- -- 80
2019-07-31 23:00:00 19.1 13 Este 27 Sudeste 0 -- -- 74
2019-07-31 22:00:00 19.8 19 Sudeste 33 Este 0 -- -- 73
2019-07-31 21:00:00 21.1 24 Este 36 Sudeste 0 -- -- 68
2019-07-31 20:00:00 24.1 19 Sudeste 34 Sudeste 0 -- -- 56
2019-07-31 19:00:00 25.7 19 Sudeste 36 Sudeste 0 -- -- 49
2019-07-31 18:00:00 27.4 18 Sudeste 35 Sudeste 0 -- -- 42
2019-07-31 17:00:00 28.7 14 Sur 48 Sudeste 0 -- -- 35
2019-07-31 16:00:00 28.2 19 Sur 43 Sudeste 0 -- -- 36
2019-07-31 15:00:00 28.6 26 Sudeste 48 Este 0 -- -- 35
2019-07-31 14:00:00 28.2 26 Este 42 Este 0 -- -- 37
2019-07-31 13:00:00 25 23 Este 37 Este 0 -- -- 45
2019-07-31 12:00:00 22.2 24 Este 35 Este 0 -- -- 52
2019-07-31 11:00:00 19.7 18 Este 29 Este 0 -- -- 51
2019-07-31 10:00:00 17.3 12 Este 18 Este 0 -- -- 54
2019-07-31 09:00:00 14.4 7 Este 10 Este 0 -- -- 59
2019-07-31 08:00:00 11.3 4 Este 8 Nordeste 0 -- -- 69
2019-07-31 07:00:00 9.8 4 Este 12 Este 0 -- -- 74
2019-07-31 06:00:00 10.5 8 Sudeste 10 Este 0 -- -- 72
2019-07-31 05:00:00 11.1 5 Este 10 Sudeste 0 -- -- 69
2019-07-31 04:00:00 11.6 7 Sudeste 11 Este 0 -- -- 67
2019-07-31 03:00:00 12.4 8 Este 16 Este 0 -- -- 65
2019-07-31 02:00:00 12.7 10 Este 18 Este 0 -- -- 65
2019-07-31 01:00:00 13.1 12 Este 18 Este 0 -- -- 63
2019-07-31 00:00:00 13.8 13 Este 22 Este 0 -- -- 61
2019-07-30 23:00:00 14.6 13 Este 27 Este 0 -- -- 59
2019-07-30 22:00:00 16.4 19 Nordeste 27 Nordeste 0 -- -- 54
2019-07-30 21:00:00 19.1 18 Nordeste 29 Nordeste 0 -- -- 46
2019-07-30 20:00:00 22.4 19 Nordeste 30 Nordeste 0 -- -- 40
2019-07-30 19:00:00 24.1 21 Nordeste 34 Nordeste 0 -- -- 37
2019-07-30 18:00:00 26 18 Nordeste 30 Nordeste 0 -- -- 36
2019-07-30 17:00:00 26.8 13 Nordeste 27 Este 0 -- -- 33
2019-07-30 16:00:00 25.9 8 Nordeste 22 Norte 0 -- -- 35
2019-07-30 15:00:00 25.2 8 Nordeste 26 Este 0 -- -- 37
2019-07-30 14:00:00 23.9 10 Nordeste 19 Nordeste 0 -- -- 41
2019-07-30 13:00:00 22.1 7 Nordeste 21 Norte 0 -- -- 46
2019-07-30 12:00:00 20.4 12 Nordeste 19 Nordeste 0 -- -- 51
2019-07-30 11:00:00 18.9 8 Nordeste 17 Nordeste 0 -- -- 54
2019-07-30 10:00:00 17.9 8 Nordeste 16 Nordeste 0 -- -- 58
2019-07-30 09:00:00 15.5 6 Noroeste 14 Oeste 0 -- -- 60
2019-07-30 08:00:00 13.3 3 Noroeste 8 Oeste 0 -- -- 55
2019-07-30 07:00:00 11.2 6 Oeste 13 Oeste 0 -- -- 58
2019-07-30 06:00:00 13.6 7 Oeste 14 Oeste 0 -- -- 48
2019-07-30 05:00:00 13.8 10 Oeste 13 Oeste 0 -- -- 45
2019-07-30 04:00:00 15.8 11 Oeste 19 Sudoeste 0 -- -- 39
2019-07-30 03:00:00 16.3 11 Oeste 17 Oeste 0 -- -- 40
2019-07-30 02:00:00 17.3 10 Oeste 15 Oeste 0 -- -- 40
2019-07-30 01:00:00 18.7 13 Oeste 18 Oeste 0 -- -- 44
2019-07-30 00:00:00 20.1 10 Oeste 13 Oeste 0 -- -- 34
2019-07-29 23:00:00 21.7 8 Noroeste 18 Oeste 0 -- -- 27
2019-07-29 22:00:00 23.6 4 Oeste 17 Oeste 0 -- -- 35
2019-07-29 21:00:00 26.3 12 Oeste 30 Oeste 0 -- -- 29
2019-07-29 20:00:00 28.5 20 Oeste 37 Oeste 0 -- -- 24
2019-07-29 19:00:00 29.8 15 Oeste 35 Noroeste 0 -- -- 24
2019-07-29 18:00:00 30.2 15 Oeste 34 Oeste 0 -- -- 24
2019-07-29 17:00:00 29.1 19 Oeste 41 Oeste 0 -- -- 27
2019-07-29 16:00:00 29.6 14 Oeste 32 Oeste 0 -- -- 27
2019-07-29 15:00:00 28.4 19 Oeste 33 Oeste 0 -- -- 29
2019-07-29 14:00:00 27 18 Oeste 36 Sudoeste 0 -- -- 32
2019-07-29 13:00:00 26.4 16 Oeste 34 Oeste 0 -- -- 33
2019-07-29 12:00:00 26.1 14 Oeste 30 Oeste 0 -- -- 33
2019-07-29 11:00:00 25.7 10 Oeste 20 Oeste 0 -- -- 33
2019-07-29 10:00:00 23.9 10 Oeste 19 Sudoeste 0 -- -- 35
2019-07-29 09:00:00 20.5 6 Oeste 12 Oeste 0 -- -- 40
2019-07-29 08:00:00 16.5 0 Calma 8 Oeste 0 -- -- 50
2019-07-29 07:00:00 14.1 4 Oeste 9 Oeste 0 -- -- 52
2019-07-29 06:00:00 13.6 0 Calma 9 Oeste 0 -- -- 55
2019-07-29 05:00:00 14.5 5 Oeste 10 Oeste 0 -- -- 53
2019-07-29 04:00:00 12 5 Oeste 10 Oeste 0 -- -- 68
2019-07-29 03:00:00 11.6 2 Oeste 6 Sudoeste 0 -- -- 69
2019-07-29 02:00:00 12.8 0 Calma 10 Sudoeste 0 -- -- 65
2019-07-29 01:00:00 13 4 Oeste 6 Sudoeste 0 -- -- 65
2019-07-29 00:00:00 15 2 Este 8 Sudeste 0 -- -- 55
2019-07-28 23:00:00 15.2 4 Noroeste 8 Oeste 0 -- -- 50
2019-07-28 22:00:00 17.2 2 Oeste 8 Nordeste 0 -- -- 42
2019-07-28 21:00:00 22.9 6 Este 15 Nordeste 0 -- -- 30
2019-07-28 20:00:00 25.6 12 Nordeste 22 Norte 0 -- -- 27
2019-07-28 19:00:00 26.8 14 Nordeste 27 Norte 0 -- -- 27
2019-07-28 18:00:00 26.7 12 Norte 24 Nordeste 0 -- -- 28
2019-07-28 17:00:00 26 11 Noroeste 21 Noroeste 0 -- -- 28
2019-07-28 16:00:00 24.5 12 Noroeste 25 Oeste 0 -- -- 29
2019-07-28 15:00:00 23.5 8 Noroeste 20 Sudoeste 0 -- -- 33
2019-07-28 14:00:00 22.3 6 Noroeste 21 Oeste 0 -- -- 36
2019-07-28 13:00:00 19.8 9 Oeste 18 Norte 0 -- -- 44
2019-07-28 12:00:00 19.2 9 Nordeste 17 Norte 0 -- -- 49
2019-07-28 11:00:00 16.9 9 Nordeste 19 Nordeste 0 -- -- 57
2019-07-28 10:00:00 15.7 5 Norte 15 Nordeste 0 -- -- 61
2019-07-28 09:00:00 13 3 Oeste 11 Oeste 0 -- -- 72
2019-07-28 08:00:00 10.2 4 Oeste 10 Oeste 0 -- -- 85
2019-07-28 07:00:00 9 4 Noroeste 15 Sudoeste 0 -- -- 88
2019-07-28 06:00:00 9.3 5 Oeste 14 Oeste 0 -- -- 87
2019-07-28 05:00:00 9.3 6 Oeste 12 Oeste 0 -- -- 86
2019-07-28 04:00:00 10.5 3 Oeste 22 Noroeste 0 -- -- 82
2019-07-28 03:00:00 11.2 12 Oeste 20 Oeste 0 -- -- 80
2019-07-28 02:00:00 12.7 8 Noroeste 14 Noroeste 0 -- -- 75
2019-07-28 01:00:00 12.9 7 Noroeste 14 Noroeste 0 -- -- 74
2019-07-28 00:00:00 13.9 8 Noroeste 16 Norte 0 -- -- 70
2019-07-27 23:00:00 14.8 11 Norte 25 Norte 0 -- -- 68
2019-07-26 12:00:00 -- -- -- -- -- -- -- -- --
2019-07-26 11:00:00 -- -- -- -- -- -- -- -- --
2019-07-26 10:00:00 21.9 6 Nordeste 14 Noroeste 0 -- -- 49
2019-07-26 09:00:00 19.5 7 Noroeste 15 Oeste 0 -- -- 59
2019-07-26 08:00:00 18.3 6 Sur 10 Oeste 0 -- -- 60
2019-07-26 07:00:00 17.6 4 Oeste 7 Sudoeste 0 -- -- 59
2019-07-26 06:00:00 18.1 2 Este 8 Sudeste 0 -- -- 66
2019-07-26 05:00:00 18.9 3 Norte 12 Sudoeste 0 -- -- 65
2019-07-26 04:00:00 20.3 4 Sudoeste 17 Sur 0 -- -- 52
2019-07-26 03:00:00 22.2 12 Sur 27 Sudoeste 0.2 -- -- 49
2019-07-26 02:00:00 23.4 14 Sudoeste 27 Sudoeste 0 -- -- 46
2019-07-26 01:00:00 24.7 14 Sur 29 Sudoeste 0 -- -- 41
2019-07-26 00:00:00 23.8 9 Sur 22 Sur 0 -- -- 43
2019-07-25 23:00:00 23 6 Sur 26 Sudoeste 0 -- -- 52
2019-07-25 22:00:00 22.1 11 Sudeste 26 Sudeste 0.2 -- -- 58
2019-07-25 21:00:00 23.6 23 Este 39 Este 0 -- -- 47
2019-07-25 20:00:00 23.7 8 Norte 17 Este 0 -- -- 56
2019-07-25 19:00:00 27.2 9 Este 18 Sudeste 0 -- -- 42
2019-07-25 18:00:00 30.4 7 Sudeste 14 Sudeste 0 -- -- 33
2019-07-25 17:00:00 28.5 5 Sudeste 17 Sudeste 0 -- -- 38
2019-07-25 16:00:00 28.2 6 Sudeste 19 Este 0 -- -- 38
2019-07-25 15:00:00 21.9 8 Sudeste 35 Este 0.6 -- -- 65
2019-07-25 14:00:00 25.9 23 Este 37 Sudeste 0 -- -- 37
2019-07-25 13:00:00 29 9 Nordeste 25 Oeste 0 -- -- 34
2019-07-25 12:00:00 32.4 10 Sudeste 22 Este 0 -- -- 26
2019-07-25 11:00:00 30.9 6 Sudeste 16 Este 0 -- -- 29
2019-07-25 10:00:00 27.5 4 Este 8 Este 0 -- -- 30
2019-07-25 09:00:00 24 3 Sudeste 6 Este 0 -- -- 33
2019-07-25 08:00:00 20.4 0 Calma 10 Norte 0 -- -- 38
2019-07-25 07:00:00 21.6 5 Sudeste 33 Sudoeste 0 -- -- 31
2019-07-25 06:00:00 24.6 22 Sudoeste 43 Sudoeste 0 -- -- 24
2019-07-25 05:00:00 24 21 Sudoeste 43 Sudoeste 0 -- -- 27
2019-07-25 04:00:00 24.4 26 Sudoeste 41 Sudoeste 0 -- -- 31
2019-07-25 03:00:00 24.3 27 Sudoeste 45 Sudoeste 0 -- -- 33
2019-07-25 02:00:00 24.2 15 Sudoeste 35 Sudoeste 0 -- -- 35
2019-07-25 01:00:00 24.6 20 Sudoeste 35 Sudoeste 0 -- -- 37
2019-07-25 00:00:00 25.2 18 Sudoeste 34 Sudoeste 0 -- -- 36
2019-07-24 23:00:00 26.2 14 Sudoeste 33 Sudoeste 0 -- -- 33
2019-07-24 22:00:00 27.2 13 Sur 26 Sur 0 -- -- 31
2019-07-24 21:00:00 28.9 14 Sur 26 Sur 0 -- -- 27
2019-07-24 20:00:00 30.6 11 Sur 27 Sur 0 -- -- 24
2019-07-24 19:00:00 31.6 17 Sudeste 32 Sudeste 0 -- -- 22
2019-07-24 18:00:00 34.2 12 Sur 40 Sudeste 0 -- -- 20
2019-07-24 17:00:00 32.3 13 Sudeste 28 Sur 0 -- -- 20
2019-07-24 16:00:00 32.8 13 Sur 32 Sudeste 0 -- -- 20
2019-07-24 15:00:00 33.6 14 Sur 33 Sur 0 -- -- 20
2019-07-24 14:00:00 32.8 13 Sur 41 Sudoeste 0 -- -- 22
2019-07-24 13:00:00 32.1 17 Sur 33 Sur 0 -- -- 23
2019-07-24 12:00:00 30.5 14 Sudeste 33 Sudeste 0 -- -- 23
2019-07-24 11:00:00 28.6 14 Sudeste 22 Sudeste 0 -- -- 29
2019-07-24 10:00:00 26.3 3 Este 14 Sudoeste 0 -- -- 35
2019-07-24 09:00:00 24 5 Este 26 Sudoeste 0 -- -- 39
2019-07-24 08:00:00 20.8 4 Sudoeste 12 Sudoeste 0 -- -- 46
2019-07-24 07:00:00 17.8 2 Noroeste 8 Oeste 0 -- -- 56
2019-07-24 06:00:00 16.9 2 Noroeste 8 Oeste 0 -- -- 57
2019-07-24 05:00:00 19.1 4 Oeste 12 Sudoeste 0 -- -- 51
2019-07-24 04:00:00 20.2 7 Oeste 12 Noroeste 0 -- -- 49
2019-07-24 03:00:00 22.1 3 Norte 10 Sur 0 -- -- 44
2019-07-24 02:00:00 21.7 3 Oeste 9 Sudeste 0 -- -- 44
2019-07-24 01:00:00 22.3 5 Oeste 17 Sudoeste 0 -- -- 42
2019-07-24 00:00:00 24.8 14 Sudoeste 30 Oeste 0 -- -- 35